LVNO2: Poteau River At Loving, OK
Data processed at Tue 28Mar2023 04:02 GMT
All information presented herein is the property of the government of the United States of America and may be revised or deleted at any time without prior notice.
Dissemination of this information without the expressed written consent of the Public Affairs Office, Tulsa District U.S. Army Corps of Engineers is strictly prohibited.
These data are gathered electronically and, as presented, have not undergone any form of quality control. These data are not guaranteed to be valid or correct.
Go to home page.
Go to station list.
Upstream stations:
Downstream station:Previous Day
Next Day
Current Day
SHEF ID: LVNO2 Poteau River at Loving, OK
STATION TYPE:
Regulating: Stage = 20.00, Flow = 4523
STAGE RIV-FLOW
ft cfs
Ccp-Rev Ccp-Rev
(US/Central)
03/27 00:00 13.72 1392
03/27 01:00 13.66 1367
03/27 02:00 13.60 1342
03/27 03:00 13.56 1325
03/27 04:00 13.51 1304
03/27 05:00 13.45 1280
03/27 06:00 13.43 1272
03/27 07:00 13.38 1251
03/27 08:00 13.34 1235
03/27 09:00 13.30 1219
03/27 10:00 13.28 1211
03/27 11:00 13.24 1194
03/27 12:00 13.21 1182
03/27 13:00 13.17 1166
03/27 14:00 13.14 1154
03/27 15:00 13.09 1133
03/27 16:00 13.08 1129
03/27 17:00 13.04 1113
03/27 18:00 13.00 1097
03/27 19:00 12.98 1090
03/27 20:00 12.95 1078
03/27 21:00 12.90 1058
03/27 22:00 12.87 1046
03/27 23:00 ---- ----